sensor_id;sensor_type;location;lat;lon;timestamp;temperature;humidity
32877;DHT22;19226;51.600;8.034;2023-02-01T00:01:27;5.40;99.90
32877;DHT22;19226;51.600;8.034;2023-02-01T00:04:12;5.50;99.90
32877;DHT22;19226;51.600;8.034;2023-02-01T00:06:57;5.50;99.90
32877;DHT22;19226;51.600;8.034;2023-02-01T00:09:41;5.50;99.90
32877;DHT22;19226;51.600;8.034;2023-02-01T00:12:26;5.50;99.90
32877;DHT22;19226;51.600;8.034;2023-02-01T00:15:10;5.50;99.90
32877;DHT22;19226;51.600;8.034;2023-02-01T00:17:55;5.60;99.90
32877;DHT22;19226;51.600;8.034;2023-02-01T00:20:45;5.50;99.90
32877;DHT22;19226;51.600;8.034;2023-02-01T00:23:34;5.60;99.90
32877;DHT22;19226;51.600;8.034;2023-02-01T00:26:25;5.60;99.90
32877;DHT22;19226;51.600;8.034;2023-02-01T00:29:20;5.60;99.90
32877;DHT22;19226;51.600;8.034;2023-02-01T00:32:04;5.60;99.90
32877;DHT22;19226;51.600;8.034;2023-02-01T00:34:49;5.60;99.90
32877;DHT22;19226;51.600;8.034;2023-02-01T00:37:33;5.70;99.90
32877;DHT22;19226;51.600;8.034;2023-02-01T00:40:18;5.60;99.90
32877;DHT22;19226;51.600;8.034;2023-02-01T00:43:02;5.60;99.90
32877;DHT22;19226;51.600;8.034;2023-02-01T00:45:47;5.70;99.90
32877;DHT22;19226;51.600;8.034;2023-02-01T00:48:32;5.70;99.90
32877;DHT22;19226;51.600;8.034;2023-02-01T00:51:23;5.70;99.90
32877;DHT22;19226;51.600;8.034;2023-02-01T00:54:08;5.70;99.90
32877;DHT22;19226;51.600;8.034;2023-02-01T00:56:53;5.70;99.90
32877;DHT22;19226;51.600;8.034;2023-02-01T00:59:37;5.80;99.90
32877;DHT22;19226;51.600;8.034;2023-02-01T01:02:21;5.80;99.90
32877;DHT22;19226;51.600;8.034;2023-02-01T01:05:06;5.80;99.90
32877;DHT22;19226;51.600;8.034;2023-02-01T01:07:51;5.80;99.90
32877;DHT22;19226;51.600;8.034;2023-02-01T01:10:36;5.90;99.90
32877;DHT22;19226;51.600;8.034;2023-02-01T01:13:20;5.90;99.90
32877;DHT22;19226;51.600;8.034;2023-02-01T01:16:06;5.90;99.90
32877;DHT22;19226;51.600;8.034;2023-02-01T01:18:53;5.90;99.90
32877;DHT22;19226;51.600;8.034;2023-02-01T01:21:38;5.90;99.90
32877;DHT22;19226;51.600;8.034;2023-02-01T01:24:22;5.90;99.90
32877;DHT22;19226;51.600;8.034;2023-02-01T01:27:07;5.90;99.90
32877;DHT22;19226;51.600;8.034;2023-02-01T01:29:51;5.90;99.90
32877;DHT22;19226;51.600;8.034;2023-02-01T01:32:36;5.90;99.90
32877;DHT22;19226;51.600;8.034;2023-02-01T01:35:20;6.00;99.90
32877;DHT22;19226;51.600;8.034;2023-02-01T01:38:05;5.90;99.90
32877;DHT22;19226;51.600;8.034;2023-02-01T01:40:49;6.00;99.90
32877;DHT22;19226;51.600;8.034;2023-02-01T01:43:54;5.90;99.90
32877;DHT22;19226;51.600;8.034;2023-02-01T01:46:40;5.90;99.90
32877;DHT22;19226;51.600;8.034;2023-02-01T01:49:26;5.90;99.90
32877;DHT22;19226;51.600;8.034;2023-02-01T01:52:11;6.00;99.90
32877;DHT22;19226;51.600;8.034;2023-02-01T01:54:56;6.00;99.90
32877;DHT22;19226;51.600;8.034;2023-02-01T01:57:44;6.00;99.90
32877;DHT22;19226;51.600;8.034;2023-02-01T02:00:31;6.00;99.90
32877;DHT22;19226;51.600;8.034;2023-02-01T02:03:23;6.00;99.90
32877;DHT22;19226;51.600;8.034;2023-02-01T02:09:23;6.00;99.90
32877;DHT22;19226;51.600;8.034;2023-02-01T02:12:08;6.00;99.90
32877;DHT22;19226;51.600;8.034;2023-02-01T02:14:53;6.00;99.90
32877;DHT22;19226;51.600;8.034;2023-02-01T02:43:35;6.00;99.90
32877;DHT22;19226;51.600;8.034;2023-02-01T02:46:28;6.00;99.90
32877;DHT22;19226;51.600;8.034;2023-02-01T02:49:35;6.00;99.90
32877;DHT22;19226;51.600;8.034;2023-02-01T02:52:22;6.00;99.90
32877;DHT22;19226;51.600;8.034;2023-02-01T02:55:26;6.00;99.90
32877;DHT22;19226;51.600;8.034;2023-02-01T02:58:13;6.00;99.90
32877;DHT22;19226;51.600;8.034;2023-02-01T03:01:17;6.10;99.90
32877;DHT22;19226;51.600;8.034;2023-02-01T03:04:21;6.10;99.90
32877;DHT22;19226;51.600;8.034;2023-02-01T03:13:59;6.10;99.90
32877;DHT22;19226;51.600;8.034;2023-02-01T03:16:51;6.10;99.90
32877;DHT22;19226;51.600;8.034;2023-02-01T03:19:43;6.10;99.90
32877;DHT22;19226;51.600;8.034;2023-02-01T03:22:34;6.10;99.90
32877;DHT22;19226;51.600;8.034;2023-02-01T03:25:32;6.10;99.90
32877;DHT22;19226;51.600;8.034;2023-02-01T03:28:19;6.10;99.90
32877;DHT22;19226;51.600;8.034;2023-02-01T03:31:06;6.10;99.90
32877;DHT22;19226;51.600;8.034;2023-02-01T03:33:51;6.10;99.90
32877;DHT22;19226;51.600;8.034;2023-02-01T03:36:41;6.10;99.90
32877;DHT22;19226;51.600;8.034;2023-02-01T03:42:42;6.10;99.90
32877;DHT22;19226;51.600;8.034;2023-02-01T03:45:36;6.10;99.90
32877;DHT22;19226;51.600;8.034;2023-02-01T03:48:27;6.10;99.90
32877;DHT22;19226;51.600;8.034;2023-02-01T03:51:13;6.10;99.90
32877;DHT22;19226;51.600;8.034;2023-02-01T03:54:01;6.10;99.90
32877;DHT22;19226;51.600;8.034;2023-02-01T03:56:47;6.10;99.90
32877;DHT22;19226;51.600;8.034;2023-02-01T03:59:32;6.10;99.90
32877;DHT22;19226;51.600;8.034;2023-02-01T04:02:17;6.10;99.90
32877;DHT22;19226;51.600;8.034;2023-02-01T04:05:01;6.00;99.90
32877;DHT22;19226;51.600;8.034;2023-02-01T04:07:46;6.10;99.90
32877;DHT22;19226;51.600;8.034;2023-02-01T04:10:31;6.10;99.90
32877;DHT22;19226;51.600;8.034;2023-02-01T04:13:15;6.10;99.90
32877;DHT22;19226;51.600;8.034;2023-02-01T04:16:00;6.10;99.90
32877;DHT22;19226;51.600;8.034;2023-02-01T04:18:44;6.10;99.90
32877;DHT22;19226;51.600;8.034;2023-02-01T04:21:29;6.00;99.90
32877;DHT22;19226;51.600;8.034;2023-02-01T04:24:13;6.00;99.90
32877;DHT22;19226;51.600;8.034;2023-02-01T04:26:58;6.00;99.90
32877;DHT22;19226;51.600;8.034;2023-02-01T04:29:42;6.00;99.90
32877;DHT22;19226;51.600;8.034;2023-02-01T04:32:27;6.10;99.90
32877;DHT22;19226;51.600;8.034;2023-02-01T04:35:11;6.00;99.90
32877;DHT22;19226;51.600;8.034;2023-02-01T04:37:56;6.00;99.90
32877;DHT22;19226;51.600;8.034;2023-02-01T04:40:40;6.00;99.90
32877;DHT22;19226;51.600;8.034;2023-02-01T04:43:25;6.00;99.90
32877;DHT22;19226;51.600;8.034;2023-02-01T04:46:10;6.00;99.90
32877;DHT22;19226;51.600;8.034;2023-02-01T04:48:54;6.00;99.90
32877;DHT22;19226;51.600;8.034;2023-02-01T04:51:40;6.00;99.90
32877;DHT22;19226;51.600;8.034;2023-02-01T04:54:24;6.00;99.90
32877;DHT22;19226;51.600;8.034;2023-02-01T04:57:09;6.00;99.90
32877;DHT22;19226;51.600;8.034;2023-02-01T04:59:54;6.00;99.90
32877;DHT22;19226;51.600;8.034;2023-02-01T05:02:39;6.10;99.90
32877;DHT22;19226;51.600;8.034;2023-02-01T05:05:24;6.10;99.90
32877;DHT22;19226;51.600;8.034;2023-02-01T05:08:08;6.00;99.90
32877;DHT22;19226;51.600;8.034;2023-02-01T05:10:53;6.10;99.90
32877;DHT22;19226;51.600;8.034;2023-02-01T05:13:37;6.10;99.90
32877;DHT22;19226;51.600;8.034;2023-02-01T05:16:34;6.00;99.90
32877;DHT22;19226;51.600;8.034;2023-02-01T05:19:19;6.00;99.90
32877;DHT22;19226;51.600;8.034;2023-02-01T05:22:03;6.00;99.90
32877;DHT22;19226;51.600;8.034;2023-02-01T05:24:47;6.00;99.90
32877;DHT22;19226;51.600;8.034;2023-02-01T05:27:32;6.00;99.90
32877;DHT22;19226;51.600;8.034;2023-02-01T05:30:17;6.10;99.90
32877;DHT22;19226;51.600;8.034;2023-02-01T05:33:02;6.10;99.90
32877;DHT22;19226;51.600;8.034;2023-02-01T05:35:46;6.10;99.90
32877;DHT22;19226;51.600;8.034;2023-02-01T05:38:31;6.10;99.90
32877;DHT22;19226;51.600;8.034;2023-02-01T05:41:15;6.10;99.90
32877;DHT22;19226;51.600;8.034;2023-02-01T05:44:00;6.10;99.90
32877;DHT22;19226;51.600;8.034;2023-02-01T05:46:45;6.10;99.90
32877;DHT22;19226;51.600;8.034;2023-02-01T05:49:29;6.10;99.90
32877;DHT22;19226;51.600;8.034;2023-02-01T05:52:14;6.10;99.90
32877;DHT22;19226;51.600;8.034;2023-02-01T05:55:03;6.10;99.90
32877;DHT22;19226;51.600;8.034;2023-02-01T05:57:48;6.10;99.90
32877;DHT22;19226;51.600;8.034;2023-02-01T06:00:33;6.10;99.90
32877;DHT22;19226;51.600;8.034;2023-02-01T06:03:17;6.10;99.90
32877;DHT22;19226;51.600;8.034;2023-02-01T06:06:02;6.10;99.90
32877;DHT22;19226;51.600;8.034;2023-02-01T06:08:48;6.10;99.90
32877;DHT22;19226;51.600;8.034;2023-02-01T06:11:32;6.10;99.90
32877;DHT22;19226;51.600;8.034;2023-02-01T06:14:17;6.10;99.90
32877;DHT22;19226;51.600;8.034;2023-02-01T06:17:01;6.10;99.90
32877;DHT22;19226;51.600;8.034;2023-02-01T06:19:47;6.10;99.90
32877;DHT22;19226;51.600;8.034;2023-02-01T06:22:32;6.10;99.90
32877;DHT22;19226;51.600;8.034;2023-02-01T06:25:17;6.10;99.90
32877;DHT22;19226;51.600;8.034;2023-02-01T06:28:02;6.10;99.90
32877;DHT22;19226;51.600;8.034;2023-02-01T06:30:50;6.10;99.90
32877;DHT22;19226;51.600;8.034;2023-02-01T06:33:34;6.10;99.90
32877;DHT22;19226;51.600;8.034;2023-02-01T06:36:19;6.10;99.90
32877;DHT22;19226;51.600;8.034;2023-02-01T06:39:05;6.20;99.90
32877;DHT22;19226;51.600;8.034;2023-02-01T06:41:50;6.20;99.90
32877;DHT22;19226;51.600;8.034;2023-02-01T06:44:34;6.10;99.90
32877;DHT22;19226;51.600;8.034;2023-02-01T06:47:19;6.10;99.90
32877;DHT22;19226;51.600;8.034;2023-02-01T06:50:04;6.10;99.90
32877;DHT22;19226;51.600;8.034;2023-02-01T06:52:49;6.10;99.90
32877;DHT22;19226;51.600;8.034;2023-02-01T06:55:33;6.10;99.90
32877;DHT22;19226;51.600;8.034;2023-02-01T06:58:18;6.10;99.90
32877;DHT22;19226;51.600;8.034;2023-02-01T07:01:07;6.20;99.90
32877;DHT22;19226;51.600;8.034;2023-02-01T07:03:52;6.20;99.90
32877;DHT22;19226;51.600;8.034;2023-02-01T07:06:37;6.10;99.90
32877;DHT22;19226;51.600;8.034;2023-02-01T07:09:21;6.10;99.90
32877;DHT22;19226;51.600;8.034;2023-02-01T07:12:06;6.10;99.90
32877;DHT22;19226;51.600;8.034;2023-02-01T07:14:50;6.10;99.90
32877;DHT22;19226;51.600;8.034;2023-02-01T07:17:35;6.10;99.90
32877;DHT22;19226;51.600;8.034;2023-02-01T07:20:20;6.10;99.90
32877;DHT22;19226;51.600;8.034;2023-02-01T07:23:04;6.10;99.90
32877;DHT22;19226;51.600;8.034;2023-02-01T07:25:56;6.10;99.90
32877;DHT22;19226;51.600;8.034;2023-02-01T07:28:41;6.10;99.90
32877;DHT22;19226;51.600;8.034;2023-02-01T07:31:25;6.10;99.90
32877;DHT22;19226;51.600;8.034;2023-02-01T07:34:13;6.20;99.90
32877;DHT22;19226;51.600;8.034;2023-02-01T07:36:57;6.10;99.90
32877;DHT22;19226;51.600;8.034;2023-02-01T07:39:41;6.10;99.90
32877;DHT22;19226;51.600;8.034;2023-02-01T07:42:26;6.20;99.90
32877;DHT22;19226;51.600;8.034;2023-02-01T07:45:11;6.10;99.90
32877;DHT22;19226;51.600;8.034;2023-02-01T07:47:57;6.10;99.90
32877;DHT22;19226;51.600;8.034;2023-02-01T07:50:42;6.20;99.90
32877;DHT22;19226;51.600;8.034;2023-02-01T07:53:28;6.10;99.90
32877;DHT22;19226;51.600;8.034;2023-02-01T07:56:18;6.20;99.90
32877;DHT22;19226;51.600;8.034;2023-02-01T07:59:03;6.20;99.90
32877;DHT22;19226;51.600;8.034;2023-02-01T08:01:47;6.20;99.90
32877;DHT22;19226;51.600;8.034;2023-02-01T08:04:32;6.20;99.90
32877;DHT22;19226;51.600;8.034;2023-02-01T08:07:16;6.20;99.90
32877;DHT22;19226;51.600;8.034;2023-02-01T08:10:01;6.20;99.90
32877;DHT22;19226;51.600;8.034;2023-02-01T08:12:46;6.20;99.90
32877;DHT22;19226;51.600;8.034;2023-02-01T08:15:35;6.20;99.90
32877;DHT22;19226;51.600;8.034;2023-02-01T08:18:20;6.20;99.90
32877;DHT22;19226;51.600;8.034;2023-02-01T08:21:07;6.20;99.90
32877;DHT22;19226;51.600;8.034;2023-02-01T08:23:52;6.20;99.90
32877;DHT22;19226;51.600;8.034;2023-02-01T08:26:36;6.30;99.90
32877;DHT22;19226;51.600;8.034;2023-02-01T08:29:20;6.30;99.90
32877;DHT22;19226;51.600;8.034;2023-02-01T08:32:05;6.30;99.90
32877;DHT22;19226;51.600;8.034;2023-02-01T08:34:50;6.30;99.90
32877;DHT22;19226;51.600;8.034;2023-02-01T08:37:34;6.30;99.90
32877;DHT22;19226;51.600;8.034;2023-02-01T08:40:19;6.30;99.90
32877;DHT22;19226;51.600;8.034;2023-02-01T08:43:05;6.40;99.90
32877;DHT22;19226;51.600;8.034;2023-02-01T08:45:53;6.40;99.90
32877;DHT22;19226;51.600;8.034;2023-02-01T08:48:38;6.40;99.90
32877;DHT22;19226;51.600;8.034;2023-02-01T08:51:23;6.40;99.90
32877;DHT22;19226;51.600;8.034;2023-02-01T08:54:08;6.40;99.90
32877;DHT22;19226;51.600;8.034;2023-02-01T08:56:52;6.40;99.90
32877;DHT22;19226;51.600;8.034;2023-02-01T08:59:38;6.40;99.90
32877;DHT22;19226;51.600;8.034;2023-02-01T09:02:23;6.40;99.90
32877;DHT22;19226;51.600;8.034;2023-02-01T09:05:08;6.50;99.90
32877;DHT22;19226;51.600;8.034;2023-02-01T09:07:53;6.50;99.90
32877;DHT22;19226;51.600;8.034;2023-02-01T09:10:37;6.50;99.90
32877;DHT22;19226;51.600;8.034;2023-02-01T09:13:22;6.50;99.90
32877;DHT22;19226;51.600;8.034;2023-02-01T09:16:06;6.50;99.90
32877;DHT22;19226;51.600;8.034;2023-02-01T09:18:51;6.50;99.90
32877;DHT22;19226;51.600;8.034;2023-02-01T09:21:36;6.50;99.90
32877;DHT22;19226;51.600;8.034;2023-02-01T09:24:20;6.50;99.90
32877;DHT22;19226;51.600;8.034;2023-02-01T09:27:05;6.60;99.90
32877;DHT22;19226;51.600;8.034;2023-02-01T09:29:51;6.60;99.90
32877;DHT22;19226;51.600;8.034;2023-02-01T09:32:37;6.50;99.90
32877;DHT22;19226;51.600;8.034;2023-02-01T09:35:22;6.50;99.90
32877;DHT22;19226;51.600;8.034;2023-02-01T09:38:06;6.60;99.90
32877;DHT22;19226;51.600;8.034;2023-02-01T09:40:51;6.60;99.90
32877;DHT22;19226;51.600;8.034;2023-02-01T09:43:42;6.60;99.90
32877;DHT22;19226;51.600;8.034;2023-02-01T09:46:31;6.60;99.90
32877;DHT22;19226;51.600;8.034;2023-02-01T09:49:23;6.70;99.90
32877;DHT22;19226;51.600;8.034;2023-02-01T09:52:12;6.70;99.90
32877;DHT22;19226;51.600;8.034;2023-02-01T09:55:04;6.70;99.90
32877;DHT22;19226;51.600;8.034;2023-02-01T10:01:01;6.80;99.90
32877;DHT22;19226;51.600;8.034;2023-02-01T10:03:46;6.80;99.90
32877;DHT22;19226;51.600;8.034;2023-02-01T10:06:43;6.80;99.90
32877;DHT22;19226;51.600;8.034;2023-02-01T10:09:42;6.90;99.90
32877;DHT22;19226;51.600;8.034;2023-02-01T10:18:34;6.90;99.90
32877;DHT22;19226;51.600;8.034;2023-02-01T10:24:55;7.00;99.90
32877;DHT22;19226;51.600;8.034;2023-02-01T10:27:45;7.00;99.90
32877;DHT22;19226;51.600;8.034;2023-02-01T10:30:49;7.00;99.90
32877;DHT22;19226;51.600;8.034;2023-02-01T10:33:45;7.10;99.90
32877;DHT22;19226;51.600;8.034;2023-02-01T10:36:42;7.10;99.90
32877;DHT22;19226;51.600;8.034;2023-02-01T10:39:30;7.10;99.90
32877;DHT22;19226;51.600;8.034;2023-02-01T10:42:17;7.20;99.90
32877;DHT22;19226;51.600;8.034;2023-02-01T10:45:03;7.10;99.90
32877;DHT22;19226;51.600;8.034;2023-02-01T10:47:50;7.20;99.90
32877;DHT22;19226;51.600;8.034;2023-02-01T10:50:44;7.20;99.90
32877;DHT22;19226;51.600;8.034;2023-02-01T10:53:45;7.20;99.90
32877;DHT22;19226;51.600;8.034;2023-02-01T10:56:37;7.20;99.90
32877;DHT22;19226;51.600;8.034;2023-02-01T10:59:24;7.30;99.90
32877;DHT22;19226;51.600;8.034;2023-02-01T11:02:33;7.30;99.90
32877;DHT22;19226;51.600;8.034;2023-02-01T11:05:20;7.40;99.90
32877;DHT22;19226;51.600;8.034;2023-02-01T11:08:15;7.40;99.90
32877;DHT22;19226;51.600;8.034;2023-02-01T11:11:03;7.40;99.90
32877;DHT22;19226;51.600;8.034;2023-02-01T11:13:58;7.40;99.90
32877;DHT22;19226;51.600;8.034;2023-02-01T11:16:49;7.40;99.90
32877;DHT22;19226;51.600;8.034;2023-02-01T11:19:34;7.40;99.90
32877;DHT22;19226;51.600;8.034;2023-02-01T11:22:18;7.40;99.90
32877;DHT22;19226;51.600;8.034;2023-02-01T11:25:09;7.40;99.90
32877;DHT22;19226;51.600;8.034;2023-02-01T11:27:55;7.40;99.90
32877;DHT22;19226;51.600;8.034;2023-02-01T11:30:43;7.40;99.90
32877;DHT22;19226;51.600;8.034;2023-02-01T11:33:32;7.30;99.90
32877;DHT22;19226;51.600;8.034;2023-02-01T11:36:23;7.30;99.90
32877;DHT22;19226;51.600;8.034;2023-02-01T11:42:15;7.20;99.90
32877;DHT22;19226;51.600;8.034;2023-02-01T11:45:25;7.20;99.90
32877;DHT22;19226;51.600;8.034;2023-02-01T11:48:10;7.20;99.90
32877;DHT22;19226;51.600;8.034;2023-02-01T11:54:25;7.20;99.90
32877;DHT22;19226;51.600;8.034;2023-02-01T11:57:35;7.20;99.90
32877;DHT22;19226;51.600;8.034;2023-02-01T12:12:32;7.20;99.90
32877;DHT22;19226;51.600;8.034;2023-02-01T12:25:25;7.10;99.90
32877;DHT22;19226;51.600;8.034;2023-02-01T12:45:52;6.80;99.90
32877;DHT22;19226;51.600;8.034;2023-02-01T12:48:48;6.80;99.90
32877;DHT22;19226;51.600;8.034;2023-02-01T12:51:37;6.80;99.90
32877;DHT22;19226;51.600;8.034;2023-02-01T12:54:42;6.80;99.90
32877;DHT22;19226;51.600;8.034;2023-02-01T12:57:37;6.70;99.90
32877;DHT22;19226;51.600;8.034;2023-02-01T13:00:32;6.70;99.90
32877;DHT22;19226;51.600;8.034;2023-02-01T13:04:20;6.60;99.90
32877;DHT22;19226;51.600;8.034;2023-02-01T13:06:49;6.60;99.90
32877;DHT22;19226;51.600;8.034;2023-02-01T13:10:11;6.60;99.90
32877;DHT22;19226;51.600;8.034;2023-02-01T13:13:02;6.60;99.90
32877;DHT22;19226;51.600;8.034;2023-02-01T13:16:23;6.60;99.90
32877;DHT22;19226;51.600;8.034;2023-02-01T13:22:25;6.60;99.90
32877;DHT22;19226;51.600;8.034;2023-02-01T13:28:12;6.50;99.90
32877;DHT22;19226;51.600;8.034;2023-02-01T13:31:21;6.50;99.90
32877;DHT22;19226;51.600;8.034;2023-02-01T13:37:44;6.60;99.90
32877;DHT22;19226;51.600;8.034;2023-02-01T13:40:44;6.60;99.90
32877;DHT22;19226;51.600;8.034;2023-02-01T13:43:30;6.60;99.90
32877;DHT22;19226;51.600;8.034;2023-02-01T13:46:15;6.60;99.90
32877;DHT22;19226;51.600;8.034;2023-02-01T13:49:02;6.60;99.90
32877;DHT22;19226;51.600;8.034;2023-02-01T13:51:49;6.60;99.90
32877;DHT22;19226;51.600;8.034;2023-02-01T13:54:41;6.60;99.90
32877;DHT22;19226;51.600;8.034;2023-02-01T13:57:40;6.60;99.90
32877;DHT22;19226;51.600;8.034;2023-02-01T14:00:31;6.60;99.90
32877;DHT22;19226;51.600;8.034;2023-02-01T14:03:21;6.70;99.90
32877;DHT22;19226;51.600;8.034;2023-02-01T14:06:32;6.70;99.90
32877;DHT22;19226;51.600;8.034;2023-02-01T14:09:32;6.70;99.90
32877;DHT22;19226;51.600;8.034;2023-02-01T14:12:48;6.80;99.90
32877;DHT22;19226;51.600;8.034;2023-02-01T14:15:33;6.80;99.90
32877;DHT22;19226;51.600;8.034;2023-02-01T14:21:34;6.80;99.90
32877;DHT22;19226;51.600;8.034;2023-02-01T14:24:25;6.80;99.90
32877;DHT22;19226;51.600;8.034;2023-02-01T14:30:05;6.90;99.90
32877;DHT22;19226;51.600;8.034;2023-02-01T14:32:51;6.90;99.90
32877;DHT22;19226;51.600;8.034;2023-02-01T14:35:36;6.90;99.90
32877;DHT22;19226;51.600;8.034;2023-02-01T14:38:21;7.00;99.90
32877;DHT22;19226;51.600;8.034;2023-02-01T14:41:29;7.00;99.90
32877;DHT22;19226;51.600;8.034;2023-02-01T14:44:22;7.00;99.90
32877;DHT22;19226;51.600;8.034;2023-02-01T14:59:07;7.00;99.90
32877;DHT22;19226;51.600;8.034;2023-02-01T15:01:57;7.00;99.90
32877;DHT22;19226;51.600;8.034;2023-02-01T15:04:43;7.00;99.90
32877;DHT22;19226;51.600;8.034;2023-02-01T15:07:30;7.00;99.90
32877;DHT22;19226;51.600;8.034;2023-02-01T15:10:14;7.00;99.90
32877;DHT22;19226;51.600;8.034;2023-02-01T15:12:59;7.00;99.90
32877;DHT22;19226;51.600;8.034;2023-02-01T15:15:44;7.00;99.90
32877;DHT22;19226;51.600;8.034;2023-02-01T15:18:29;7.00;99.90
32877;DHT22;19226;51.600;8.034;2023-02-01T15:21:17;7.00;99.90
32877;DHT22;19226;51.600;8.034;2023-02-01T15:24:25;7.00;99.90
32877;DHT22;19226;51.600;8.034;2023-02-01T15:27:10;7.00;99.90
32877;DHT22;19226;51.600;8.034;2023-02-01T15:30:04;7.00;99.90
32877;DHT22;19226;51.600;8.034;2023-02-01T15:32:50;7.00;99.90
32877;DHT22;19226;51.600;8.034;2023-02-01T15:35:42;7.00;99.90
32877;DHT22;19226;51.600;8.034;2023-02-01T15:38:33;7.00;99.90
32877;DHT22;19226;51.600;8.034;2023-02-01T15:41:20;7.00;99.90
32877;DHT22;19226;51.600;8.034;2023-02-01T15:44:18;7.00;99.90
32877;DHT22;19226;51.600;8.034;2023-02-01T15:47:27;7.00;99.90
32877;DHT22;19226;51.600;8.034;2023-02-01T15:50:16;6.90;99.90
32877;DHT22;19226;51.600;8.034;2023-02-01T15:53:03;6.90;99.90
32877;DHT22;19226;51.600;8.034;2023-02-01T15:55:52;7.00;99.90
32877;DHT22;19226;51.600;8.034;2023-02-01T15:58:41;7.00;99.90
32877;DHT22;19226;51.600;8.034;2023-02-01T16:01:26;6.90;99.90
32877;DHT22;19226;51.600;8.034;2023-02-01T16:06:59;7.00;99.90
32877;DHT22;19226;51.600;8.034;2023-02-01T16:09:55;7.00;99.90
32877;DHT22;19226;51.600;8.034;2023-02-01T16:15:27;7.10;99.90
32877;DHT22;19226;51.600;8.034;2023-02-01T16:18:14;7.10;99.90
32877;DHT22;19226;51.600;8.034;2023-02-01T16:20:59;7.00;99.90
32877;DHT22;19226;51.600;8.034;2023-02-01T16:23:43;7.00;99.90
32877;DHT22;19226;51.600;8.034;2023-02-01T16:26:28;7.10;99.90
32877;DHT22;19226;51.600;8.034;2023-02-01T16:29:12;7.00;99.90
32877;DHT22;19226;51.600;8.034;2023-02-01T16:31:59;7.10;99.90
32877;DHT22;19226;51.600;8.034;2023-02-01T16:34:45;7.10;99.90
32877;DHT22;19226;51.600;8.034;2023-02-01T16:37:29;7.10;99.90
32877;DHT22;19226;51.600;8.034;2023-02-01T16:40:17;7.00;99.90
32877;DHT22;19226;51.600;8.034;2023-02-01T16:43:05;7.00;99.90
32877;DHT22;19226;51.600;8.034;2023-02-01T16:45:53;7.00;99.90
32877;DHT22;19226;51.600;8.034;2023-02-01T16:48:41;7.00;99.90
32877;DHT22;19226;51.600;8.034;2023-02-01T16:51:30;6.90;99.90
32877;DHT22;19226;51.600;8.034;2023-02-01T16:54:16;6.80;99.90
32877;DHT22;19226;51.600;8.034;2023-02-01T16:57:01;6.80;99.90
32877;DHT22;19226;51.600;8.034;2023-02-01T16:59:45;6.80;99.90
32877;DHT22;19226;51.600;8.034;2023-02-01T17:02:30;6.80;99.90
32877;DHT22;19226;51.600;8.034;2023-02-01T17:05:15;6.80;99.90
32877;DHT22;19226;51.600;8.034;2023-02-01T17:08:02;6.80;99.90
32877;DHT22;19226;51.600;8.034;2023-02-01T17:10:48;6.80;99.90
32877;DHT22;19226;51.600;8.034;2023-02-01T17:13:33;6.70;99.90
32877;DHT22;19226;51.600;8.034;2023-02-01T17:19:05;6.70;99.90
32877;DHT22;19226;51.600;8.034;2023-02-01T17:21:53;6.60;99.90
32877;DHT22;19226;51.600;8.034;2023-02-01T17:24:39;6.60;99.90
32877;DHT22;19226;51.600;8.034;2023-02-01T17:27:24;6.60;99.90
32877;DHT22;19226;51.600;8.034;2023-02-01T17:30:09;6.50;99.90
32877;DHT22;19226;51.600;8.034;2023-02-01T17:32:53;6.50;99.90
32877;DHT22;19226;51.600;8.034;2023-02-01T17:35:39;6.40;99.90
32877;DHT22;19226;51.600;8.034;2023-02-01T17:38:24;6.40;99.90
32877;DHT22;19226;51.600;8.034;2023-02-01T17:41:10;6.30;99.90
32877;DHT22;19226;51.600;8.034;2023-02-01T17:43:56;6.30;99.90
32877;DHT22;19226;51.600;8.034;2023-02-01T17:46:40;6.20;99.90
32877;DHT22;19226;51.600;8.034;2023-02-01T17:49:25;6.10;99.90
32877;DHT22;19226;51.600;8.034;2023-02-01T17:52:17;6.20;99.90
32877;DHT22;19226;51.600;8.034;2023-02-01T17:55:01;6.20;99.90
32877;DHT22;19226;51.600;8.034;2023-02-01T17:57:48;6.10;99.90
32877;DHT22;19226;51.600;8.034;2023-02-01T18:00:32;6.10;99.90
32877;DHT22;19226;51.600;8.034;2023-02-01T18:06:11;6.10;99.90
32877;DHT22;19226;51.600;8.034;2023-02-01T18:08:56;6.10;99.90
32877;DHT22;19226;51.600;8.034;2023-02-01T18:11:41;6.10;99.90
32877;DHT22;19226;51.600;8.034;2023-02-01T18:14:25;6.10;99.90
32877;DHT22;19226;51.600;8.034;2023-02-01T18:17:10;6.10;99.90
32877;DHT22;19226;51.600;8.034;2023-02-01T18:19:58;6.10;99.90
32877;DHT22;19226;51.600;8.034;2023-02-01T18:22:44;6.10;99.90
32877;DHT22;19226;51.600;8.034;2023-02-01T18:25:31;6.20;99.90
32877;DHT22;19226;51.600;8.034;2023-02-01T18:28:21;6.20;99.90
32877;DHT22;19226;51.600;8.034;2023-02-01T18:31:06;6.10;99.90
32877;DHT22;19226;51.600;8.034;2023-02-01T18:33:52;6.00;99.90
32877;DHT22;19226;51.600;8.034;2023-02-01T18:36:39;6.00;99.90
32877;DHT22;19226;51.600;8.034;2023-02-01T18:39:24;6.00;99.90
32877;DHT22;19226;51.600;8.034;2023-02-01T18:42:09;5.90;99.90
32877;DHT22;19226;51.600;8.034;2023-02-01T18:44:55;5.90;99.90
32877;DHT22;19226;51.600;8.034;2023-02-01T18:47:39;5.90;99.90
32877;DHT22;19226;51.600;8.034;2023-02-01T18:50:25;5.90;99.90
32877;DHT22;19226;51.600;8.034;2023-02-01T18:53:17;6.00;99.90
32877;DHT22;19226;51.600;8.034;2023-02-01T18:56:03;6.00;99.90
32877;DHT22;19226;51.600;8.034;2023-02-01T18:58:48;6.00;99.90
32877;DHT22;19226;51.600;8.034;2023-02-01T19:01:33;6.00;99.90
32877;DHT22;19226;51.600;8.034;2023-02-01T19:04:17;5.90;99.90
32877;DHT22;19226;51.600;8.034;2023-02-01T19:07:02;5.90;99.90
32877;DHT22;19226;51.600;8.034;2023-02-01T19:09:46;5.90;99.90
32877;DHT22;19226;51.600;8.034;2023-02-01T19:12:31;5.90;99.90
32877;DHT22;19226;51.600;8.034;2023-02-01T19:15:22;5.90;99.90
32877;DHT22;19226;51.600;8.034;2023-02-01T19:18:07;5.90;99.90
32877;DHT22;19226;51.600;8.034;2023-02-01T19:20:52;5.90;99.90
32877;DHT22;19226;51.600;8.034;2023-02-01T19:23:39;5.90;99.90
32877;DHT22;19226;51.600;8.034;2023-02-01T19:26:23;5.90;99.90
32877;DHT22;19226;51.600;8.034;2023-02-01T19:29:08;5.90;99.90
32877;DHT22;19226;51.600;8.034;2023-02-01T19:31:53;5.90;99.90
32877;DHT22;19226;51.600;8.034;2023-02-01T19:34:38;5.80;99.90
32877;DHT22;19226;51.600;8.034;2023-02-01T19:37:23;5.80;99.90
32877;DHT22;19226;51.600;8.034;2023-02-01T19:40:11;5.70;99.90
32877;DHT22;19226;51.600;8.034;2023-02-01T19:42:55;5.60;99.90
32877;DHT22;19226;51.600;8.034;2023-02-01T19:45:40;5.70;99.90
32877;DHT22;19226;51.600;8.034;2023-02-01T19:48:27;5.60;99.90
32877;DHT22;19226;51.600;8.034;2023-02-01T19:51:11;5.50;99.90
32877;DHT22;19226;51.600;8.034;2023-02-01T19:53:56;5.50;99.90
32877;DHT22;19226;51.600;8.034;2023-02-01T19:56:41;5.50;99.90
32877;DHT22;19226;51.600;8.034;2023-02-01T19:59:27;5.50;99.90
32877;DHT22;19226;51.600;8.034;2023-02-01T20:02:15;5.40;99.90
32877;DHT22;19226;51.600;8.034;2023-02-01T20:04:59;5.40;99.90
32877;DHT22;19226;51.600;8.034;2023-02-01T20:07:44;5.40;99.90
32877;DHT22;19226;51.600;8.034;2023-02-01T20:10:28;5.40;99.90
32877;DHT22;19226;51.600;8.034;2023-02-01T20:13:13;5.40;99.90